Southampton, New Jersey
Current Conditions -  °F | °C
As of 3:54 AM on Wednesday 22 Oct 2014 (Local Time) from KVAY Reporting Station
Overcast Overcast  
Wind Chill: 55°   Ceiling: 1100
Heat Index: 55°   Visibility: 10mi
Dew Point: 51°   Wind: 9mph
Humidity: 86%   Direction: 10°N
Pressure: 29.84"   Gusts: NA
Location:  39.7955°N, 74.6301°W
Report Text: KVAY 220754Z AUTO 01008KT 10SM OVC011 13/11 A2984 RMK AO2 LTG DSNT E SLP103 T01280106
Loading
Personal Weather Stations






























Interactive Weather Map New forecast layout! Learn more

10-Day Weather Forecast

Advertisements
Track Severe Weather on mobile